createdAt,value
2022-11-15T00:00:02.653Z,101139.53
2022-11-15T00:03:06.208Z,101136.84
2022-11-15T00:05:53.453Z,101135.91
2022-11-15T00:08:40.437Z,101134.45
2022-11-15T00:11:27.736Z,101128.53
2022-11-15T00:14:14.297Z,101133.34
2022-11-15T00:17:01.346Z,101124.31
2022-11-15T00:19:47.931Z,101119.89
2022-11-15T00:22:34.933Z,101119.08
2022-11-15T00:25:21.651Z,101115.23
2022-11-15T00:28:08.350Z,101110.36
2022-11-15T00:30:55.468Z,101106.08
2022-11-15T00:33:44.192Z,101103.45
2022-11-15T00:36:34.407Z,101103.66
2022-11-15T00:39:20.864Z,101103.11
2022-11-15T00:42:07.394Z,101104.80
2022-11-15T00:44:53.966Z,101104.91
2022-11-15T00:47:40.585Z,101104.52
2022-11-15T00:50:27.208Z,101108.02
2022-11-15T00:53:14.089Z,101099.83
2022-11-15T00:56:00.655Z,101103.79
2022-11-15T00:58:47.237Z,101102.64
2022-11-15T01:01:33.799Z,101103.70
2022-11-15T01:04:20.126Z,101101.46
2022-11-15T01:07:06.798Z,101094.39
2022-11-15T01:09:53.826Z,101090.09
2022-11-15T01:12:40.086Z,101085.33
2022-11-15T01:15:26.810Z,101084.55
2022-11-15T01:18:13.800Z,101081.04
2022-11-15T01:21:00.471Z,101080.56
2022-11-15T01:23:47.023Z,101076.83
2022-11-15T01:26:34.739Z,101076.63
2022-11-15T01:29:21.205Z,101075.83
2022-11-15T01:32:08.147Z,101071.28
2022-11-15T01:34:54.904Z,101065.13
2022-11-15T01:37:41.205Z,101061.73
2022-11-15T01:40:27.729Z,101066.39
2022-11-15T01:43:36.909Z,101063.39
2022-11-15T01:46:35.809Z,101055.34
2022-11-15T01:49:24.853Z,101056.02
2022-11-15T01:52:17.386Z,101056.48
2022-11-15T01:55:07.324Z,101052.13
2022-11-15T01:58:02.904Z,101047.77
2022-11-15T02:00:50.842Z,101048.13
2022-11-15T02:03:57.838Z,101037.10
2022-11-15T02:06:45.419Z,101039.70
2022-11-15T02:09:32.108Z,101037.59
2022-11-15T02:12:22.069Z,101022.95
2022-11-15T02:15:09.774Z,101030.11
2022-11-15T02:18:02.515Z,101029.77
2022-11-15T02:21:02.887Z,101026.32
2022-11-15T02:24:20.737Z,101027.52
2022-11-15T02:27:36.950Z,101028.11
2022-11-15T02:30:37.420Z,101025.77
2022-11-15T02:33:38.272Z,101023.84
2022-11-15T02:37:03.876Z,101023.78
2022-11-15T02:40:00.743Z,101025.02
2022-11-15T02:43:15.763Z,101022.09
2022-11-15T02:46:16.040Z,101018.45
2022-11-15T02:49:02.408Z,101013.79
2022-11-15T02:51:51.515Z,101017.48
2022-11-15T02:54:38.146Z,101010.65
2022-11-15T02:57:35.857Z,101002.46
2022-11-15T03:00:22.722Z,101003.44
2022-11-15T03:03:41.821Z,101000.38
2022-11-15T03:06:51.147Z,100996.14
2022-11-15T03:10:07.688Z,100993.69
2022-11-15T03:13:01.165Z,100995.77
2022-11-15T03:16:05.576Z,100987.75
2022-11-15T03:19:00.444Z,100986.38
2022-11-15T03:21:49.443Z,100985.86
2022-11-15T03:24:39.146Z,100974.39
2022-11-15T03:27:29.980Z,100976.36
2022-11-15T03:30:17.847Z,100967.02
2022-11-15T03:33:05.476Z,100966.16
2022-11-15T03:35:53.847Z,100961.59
2022-11-15T03:38:41.617Z,100964.92
2022-11-15T03:41:42.940Z,100963.25
2022-11-15T03:44:59.679Z,100967.77
2022-11-15T03:47:58.844Z,100962.25
2022-11-15T03:50:46.874Z,100962.95
2022-11-15T03:53:33.993Z,100960.77
2022-11-15T03:56:20.513Z,100959.64
2022-11-15T03:59:07.059Z,100957.58
2022-11-15T04:01:53.618Z,100958.85
2022-11-15T04:04:40.329Z,100963.16
2022-11-15T04:07:27.130Z,100969.11
2022-11-15T04:10:14.412Z,100959.82
2022-11-15T04:13:03.817Z,100963.49
2022-11-15T04:15:50.401Z,100967.55
2022-11-15T04:18:37.159Z,100966.67
2022-11-15T04:21:42.724Z,100966.70
2022-11-15T04:24:29.625Z,100960.70
2022-11-15T04:27:16.325Z,100958.20
2022-11-15T04:30:03.013Z,100957.29
2022-11-15T04:32:50.011Z,100963.35
2022-11-15T04:35:36.646Z,100963.51
2022-11-15T04:38:23.421Z,100963.05
2022-11-15T04:41:09.779Z,100966.20
2022-11-15T04:43:56.456Z,100962.44
2022-11-15T04:46:42.996Z,100957.29
2022-11-15T04:49:29.467Z,100958.62
2022-11-15T04:52:16.305Z,100956.20
2022-11-15T04:58:14.558Z,100942.94
2022-11-15T05:01:11.912Z,100946.55
2022-11-15T05:04:17.187Z,100950.73
2022-11-15T05:07:05.486Z,100941.68
2022-11-15T05:09:52.421Z,100944.10
2022-11-15T05:12:39.499Z,100945.27
2022-11-15T05:15:26.495Z,100943.33
2022-11-15T05:18:13.324Z,100936.60
2022-11-15T05:21:08.584Z,100933.10
2022-11-15T05:23:54.975Z,100935.34
2022-11-15T05:26:41.583Z,100940.29
2022-11-15T05:29:28.432Z,100935.15
2022-11-15T05:32:15.032Z,100927.14
2022-11-15T05:35:01.927Z,100926.31
2022-11-15T05:37:49.579Z,100930.43
2022-11-15T05:40:36.569Z,100922.71
2022-11-15T05:43:24.781Z,100922.86
2022-11-15T05:46:12.018Z,100930.05
2022-11-15T05:49:00.020Z,100933.29
2022-11-15T05:51:49.511Z,100932.48
2022-11-15T05:54:37.706Z,100934.67
2022-11-15T05:57:26.002Z,100931.36
2022-11-15T06:00:13.786Z,100935.23
2022-11-15T06:03:00.330Z,100932.14
2022-11-15T06:05:46.956Z,100932.63
2022-11-15T06:08:33.869Z,100930.14
2022-11-15T06:11:20.544Z,100932.16
2022-11-15T06:14:07.343Z,100936.29
2022-11-15T06:16:54.170Z,100940.28
2022-11-15T06:19:40.841Z,100935.02
2022-11-15T06:22:27.428Z,100934.72
2022-11-15T06:25:14.168Z,100935.38
2022-11-15T06:28:00.887Z,100937.42
2022-11-15T06:30:52.912Z,100937.49
2022-11-15T06:33:40.977Z,100946.05
2022-11-15T06:36:27.997Z,100942.40
2022-11-15T06:39:15.290Z,100938.67
2022-11-15T06:42:02.219Z,100937.60
2022-11-15T06:44:48.993Z,100940.52
2022-11-15T06:47:36.010Z,100940.58
2022-11-15T06:50:23.100Z,100946.70
2022-11-15T06:53:10.139Z,100955.19
2022-11-15T06:56:03.954Z,100957.08
2022-11-15T06:58:51.296Z,100951.55
2022-11-15T07:01:37.717Z,100955.74
2022-11-15T07:04:24.623Z,100963.27
2022-11-15T07:07:11.459Z,100965.08
2022-11-15T07:09:58.673Z,100959.73
2022-11-15T07:12:48.726Z,100963.19
2022-11-15T07:15:35.838Z,100955.20
2022-11-15T07:18:23.070Z,100961.34
2022-11-15T07:21:11.694Z,100969.80
2022-11-15T07:23:57.988Z,100965.18
2022-11-15T07:26:44.913Z,100969.21
2022-11-15T07:29:32.372Z,100963.23
2022-11-15T07:32:19.128Z,100961.55
2022-11-15T07:35:06.417Z,100955.20
2022-11-15T07:38:00.855Z,100947.71
2022-11-15T07:40:48.711Z,100949.66
2022-11-15T07:43:36.792Z,100948.88
2022-11-15T07:46:25.038Z,100950.08
2022-11-15T07:49:11.748Z,100947.62
2022-11-15T07:51:58.556Z,100939.20
2022-11-15T07:54:45.153Z,100941.52
2022-11-15T07:57:32.118Z,100942.59
2022-11-15T08:00:19.169Z,100942.54
2022-11-15T08:03:11.280Z,100939.42
2022-11-15T08:05:57.860Z,100941.29
2022-11-15T08:08:44.480Z,100936.50
2022-11-15T08:11:31.244Z,100931.15
2022-11-15T08:14:18.014Z,100929.45
2022-11-15T08:17:04.436Z,100921.48
2022-11-15T08:19:51.591Z,100919.33
2022-11-15T08:22:38.121Z,100917.90
2022-11-15T08:25:27.667Z,100917.48
2022-11-15T08:28:17.666Z,100915.59
2022-11-15T08:31:05.212Z,100915.89
2022-11-15T08:33:51.741Z,100907.84
2022-11-15T08:36:44.867Z,100909.89
2022-11-15T08:39:32.946Z,100908.14
2022-11-15T08:42:20.142Z,100906.34
2022-11-15T08:45:08.308Z,100906.06
2022-11-15T08:47:55.007Z,100903.77
2022-11-15T08:50:42.042Z,100901.27
2022-11-15T08:53:29.231Z,100900.02
2022-11-15T08:56:16.744Z,100894.64
2022-11-15T08:59:03.667Z,100900.04
2022-11-15T09:01:50.470Z,100889.94
2022-11-15T09:04:37.770Z,100896.03
2022-11-15T09:07:25.980Z,100895.50
2022-11-15T09:10:12.767Z,100898.67
2022-11-15T09:13:00.106Z,100893.98
2022-11-15T09:15:47.202Z,100894.00
2022-11-15T09:18:34.860Z,100891.58
2022-11-15T09:21:23.084Z,100889.29
2022-11-15T09:24:10.339Z,100886.60
2022-11-15T09:26:58.075Z,100883.55
2022-11-15T09:29:45.068Z,100886.20
2022-11-15T09:32:38.797Z,100878.90
2022-11-15T09:35:26.236Z,100877.94
2022-11-15T09:38:13.770Z,100875.14
2022-11-15T09:41:30.665Z,100869.88
2022-11-15T09:44:35.298Z,100869.85
2022-11-15T09:47:36.063Z,100875.55
2022-11-15T09:50:47.947Z,100875.63
2022-11-15T09:53:47.942Z,100876.35
2022-11-15T09:56:28.078Z,100869.70
2022-11-15T09:58:59.297Z,100862.63
2022-11-15T10:01:50.636Z,100854.88
2022-11-15T10:04:19.379Z,100858.35
2022-11-15T10:06:59.442Z,100854.24
2022-11-15T10:09:37.221Z,100850.16
2022-11-15T10:12:05.796Z,100856.41
2022-11-15T10:14:34.018Z,100849.55
2022-11-15T10:17:08.369Z,100844.36
2022-11-15T10:19:47.956Z,100842.98
2022-11-15T10:22:36.043Z,100845.02
2022-11-15T10:25:09.727Z,100844.69
2022-11-15T10:27:38.132Z,100837.52
2022-11-15T10:30:14.056Z,100838.84
2022-11-15T10:32:44.517Z,100837.98
2022-11-15T10:35:42.634Z,100835.94
2022-11-15T10:38:12.977Z,100832.40
2022-11-15T10:40:44.878Z,100827.34
2022-11-15T10:43:20.135Z,100826.92
2022-11-15T10:45:48.422Z,100823.77
2022-11-15T10:48:23.538Z,100817.73
2022-11-15T10:50:53.723Z,100815.33
2022-11-15T10:53:31.749Z,100813.56
2022-11-15T10:56:07.998Z,100810.34
2022-11-15T10:58:39.543Z,100811.16
2022-11-15T11:01:18.221Z,100807.91
2022-11-15T11:04:00.334Z,100807.80
2022-11-15T11:06:29.543Z,100803.90
2022-11-15T11:09:03.797Z,100804.34
2022-11-15T11:11:49.681Z,100804.75
2022-11-15T11:14:33.338Z,100800.96
2022-11-15T11:17:23.937Z,100803.85
2022-11-15T11:19:58.827Z,100800.95
2022-11-15T11:22:48.136Z,100800.74
2022-11-15T11:25:35.725Z,100798.09
2022-11-15T11:28:15.170Z,100793.35
2022-11-15T11:30:55.483Z,100791.48
2022-11-15T11:33:32.852Z,100783.92
2022-11-15T11:36:23.121Z,100782.25
2022-11-15T11:38:59.205Z,100783.91
2022-11-15T11:41:55.401Z,100783.67
2022-11-15T11:45:01.588Z,100779.98
2022-11-15T11:47:40.135Z,100772.59
2022-11-15T11:50:21.535Z,100767.42
2022-11-15T11:53:05.846Z,100760.80
2022-11-15T11:55:39.808Z,100756.88
2022-11-15T11:58:38.204Z,100755.15
2022-11-15T12:01:12.709Z,100752.17
2022-11-15T12:03:46.959Z,100750.83
2022-11-15T12:07:00.018Z,100743.99
2022-11-15T12:09:44.542Z,100739.67
2022-11-15T12:12:19.812Z,100740.27
2022-11-15T12:14:53.182Z,100736.41
2022-11-15T12:17:45.647Z,100733.71
2022-11-15T12:20:28.111Z,100731.05
2022-11-15T12:23:04.951Z,100728.34
2022-11-15T12:25:43.015Z,100726.73
2022-11-15T12:28:58.334Z,100726.27
2022-11-15T12:31:38.902Z,100723.86
2022-11-15T12:34:22.225Z,100731.20
2022-11-15T12:36:52.874Z,100725.14
2022-11-15T12:40:04.285Z,100727.55
2022-11-15T12:42:43.672Z,100722.04
2022-11-15T12:45:28.865Z,100719.05
2022-11-15T12:48:18.849Z,100716.83
2022-11-15T12:50:54.625Z,100718.42
2022-11-15T12:53:26.043Z,100720.56
2022-11-15T12:56:09.534Z,100721.12
2022-11-15T12:59:01.286Z,100715.16
2022-11-15T13:01:34.026Z,100719.00
2022-11-15T13:04:22.587Z,100716.30
2022-11-15T13:06:58.296Z,100714.41
2022-11-15T13:09:38.982Z,100710.66
2022-11-15T13:12:15.997Z,100709.32
2022-11-15T13:14:59.585Z,100698.75
2022-11-15T13:17:31.641Z,100695.59
2022-11-15T13:20:03.224Z,100696.13
2022-11-15T13:22:52.480Z,100698.44
2022-11-15T13:26:03.051Z,100700.42
2022-11-15T13:28:40.045Z,100695.01
2022-11-15T13:31:24.244Z,100690.63
2022-11-15T13:33:54.319Z,100682.23
2022-11-15T13:36:30.850Z,100682.28
2022-11-15T13:39:08.193Z,100680.38
2022-11-15T13:41:45.762Z,100681.30
2022-11-15T13:44:30.842Z,100678.27
2022-11-15T13:47:06.937Z,100677.04
2022-11-15T13:49:36.487Z,100674.88
2022-11-15T13:52:12.885Z,100671.10
2022-11-15T13:55:12.534Z,100667.05
2022-11-15T13:57:57.212Z,100665.55
2022-11-15T14:00:42.345Z,100664.58
2022-11-15T14:03:20.153Z,100657.37
2022-11-15T14:06:21.808Z,100657.59
2022-11-15T14:09:09.873Z,100657.21
2022-11-15T14:11:50.193Z,100660.61
2022-11-15T14:14:25.274Z,100661.05
2022-11-15T14:16:59.219Z,100659.62
2022-11-15T14:19:27.571Z,100657.74
2022-11-15T14:22:14.771Z,100658.76
2022-11-15T14:24:46.974Z,100655.38
2022-11-15T14:27:28.435Z,100659.20
2022-11-15T14:30:01.481Z,100659.83
2022-11-15T14:32:38.959Z,100655.94
2022-11-15T14:35:15.832Z,100652.89
2022-11-15T14:37:44.540Z,100651.47
2022-11-15T14:40:21.979Z,100649.73
2022-11-15T14:42:51.378Z,100647.20
2022-11-15T14:45:23.164Z,100646.23
2022-11-15T14:47:51.936Z,100644.20
2022-11-15T14:50:21.836Z,100652.34
2022-11-15T14:52:50.752Z,100646.35
2022-11-15T14:55:24.491Z,100648.20
2022-11-15T14:57:53.803Z,100642.64
2022-11-15T15:00:23.731Z,100633.70
2022-11-15T15:02:55.006Z,100629.92
2022-11-15T15:05:33.718Z,100625.45
2022-11-15T15:08:03.252Z,100628.98
2022-11-15T15:10:42.566Z,100633.33
2022-11-15T15:13:25.821Z,100631.11
2022-11-15T15:15:55.044Z,100630.36
2022-11-15T15:18:23.631Z,100628.83
2022-11-15T15:21:01.316Z,100625.64
2022-11-15T15:23:32.756Z,100623.70
2022-11-15T15:26:01.238Z,100617.05
2022-11-15T15:28:34.272Z,100616.91
2022-11-15T15:31:05.294Z,100617.09
2022-11-15T15:33:33.987Z,100611.98
2022-11-15T15:36:02.701Z,100609.03
2022-11-15T15:38:31.429Z,100608.69
2022-11-15T15:41:04.049Z,100606.58
2022-11-15T15:43:32.858Z,100610.83
2022-11-15T15:46:01.264Z,100609.08
2022-11-15T15:48:29.961Z,100604.38
2022-11-15T15:50:58.380Z,100607.48
2022-11-15T15:53:26.831Z,100603.04
2022-11-15T15:55:55.226Z,100598.50
2022-11-15T15:58:23.687Z,100602.38
2022-11-15T16:00:53.959Z,100595.38
2022-11-15T16:03:23.636Z,100595.72
2022-11-15T16:05:52.486Z,100601.27
2022-11-15T16:08:25.393Z,100600.38
2022-11-15T16:10:54.710Z,100601.48
2022-11-15T16:13:25.330Z,100601.83
2022-11-15T16:15:56.213Z,100600.52
2022-11-15T16:18:26.176Z,100599.72
2022-11-15T16:21:05.111Z,100600.39
2022-11-15T16:23:36.698Z,100607.94
2022-11-15T16:26:33.815Z,100615.52
2022-11-15T16:29:03.707Z,100615.19
2022-11-15T16:31:35.505Z,100611.27
2022-11-15T16:34:08.435Z,100609.13
2022-11-15T16:36:37.415Z,100605.23
2022-11-15T16:39:06.182Z,100599.27
2022-11-15T16:41:34.824Z,100597.48
2022-11-15T16:44:04.166Z,100600.95
2022-11-15T16:46:32.895Z,100599.17
2022-11-15T16:49:01.961Z,100597.58
2022-11-15T16:51:32.197Z,100592.50
2022-11-15T16:54:01.502Z,100596.96
2022-11-15T16:56:31.504Z,100600.54
2022-11-15T16:59:01.783Z,100606.66
2022-11-15T17:01:51.036Z,100598.70
2022-11-15T17:04:24.246Z,100592.98
2022-11-15T17:06:55.529Z,100593.41
2022-11-15T17:09:24.956Z,100599.40
2022-11-15T17:11:56.844Z,100599.80
2022-11-15T17:14:27.837Z,100591.07
2022-11-15T17:16:56.556Z,100588.59
2022-11-15T17:19:26.327Z,100588.47
2022-11-15T17:21:57.978Z,100587.28
2022-11-15T17:24:31.053Z,100594.33
2022-11-15T17:27:00.487Z,100596.51
2022-11-15T17:29:31.544Z,100594.05
2022-11-15T17:32:00.312Z,100588.09
2022-11-15T17:34:29.088Z,100587.36
2022-11-15T17:37:02.092Z,100588.95
2022-11-15T17:39:32.130Z,100587.77
2022-11-15T17:42:01.302Z,100591.55
2022-11-15T17:44:31.245Z,100585.95
2022-11-15T17:47:00.173Z,100589.73
2022-11-15T17:49:29.407Z,100588.37
2022-11-15T17:51:58.853Z,100586.95
2022-11-15T17:54:27.535Z,100586.87
2022-11-15T17:56:58.330Z,100581.36
2022-11-15T17:59:27.191Z,100566.91
2022-11-15T18:01:56.285Z,100567.02
2022-11-15T18:04:30.177Z,100569.17
2022-11-15T18:06:59.061Z,100566.04
2022-11-15T18:09:27.970Z,100565.77
2022-11-15T18:11:59.695Z,100557.58
2022-11-15T18:14:35.019Z,100556.20
2022-11-15T18:17:04.487Z,100553.64
2022-11-15T18:19:34.631Z,100551.58
2022-11-15T18:22:05.887Z,100547.80
2022-11-15T18:24:36.970Z,100552.85
2022-11-15T18:27:06.821Z,100552.98
2022-11-15T18:29:38.723Z,100547.89
2022-11-15T18:32:12.614Z,100549.63
2022-11-15T18:34:41.540Z,100543.21
2022-11-15T18:37:10.662Z,100540.76
2022-11-15T18:39:39.443Z,100541.65
2022-11-15T18:42:08.205Z,100542.90
2022-11-15T18:44:37.359Z,100537.15
2022-11-15T18:47:05.808Z,100539.61
2022-11-15T18:49:34.939Z,100542.64
2022-11-15T18:52:03.806Z,100536.45
2022-11-15T18:54:33.300Z,100534.39
2022-11-15T18:57:02.554Z,100531.13
2022-11-15T18:59:31.645Z,100534.71
2022-11-15T19:02:04.294Z,100534.86
2022-11-15T19:04:33.743Z,100539.14
2022-11-15T19:07:03.438Z,100538.09
2022-11-15T19:09:34.951Z,100538.23
2022-11-15T19:12:03.949Z,100540.25
2022-11-15T19:14:32.184Z,100544.69
2022-11-15T19:17:03.098Z,100537.59
2022-11-15T19:19:33.595Z,100539.28
2022-11-15T19:22:02.601Z,100535.02
2022-11-15T19:24:31.631Z,100537.89
2022-11-15T19:27:00.507Z,100536.00
2022-11-15T19:29:29.317Z,100533.64
2022-11-15T19:31:58.210Z,100528.83
2022-11-15T19:34:28.778Z,100528.33
2022-11-15T19:36:58.158Z,100524.61
2022-11-15T19:39:26.648Z,100516.65
2022-11-15T19:41:54.722Z,100516.48
2022-11-15T19:44:26.571Z,100521.73
2022-11-15T19:46:54.852Z,100522.55
2022-11-15T19:49:23.733Z,100523.98
2022-11-15T19:51:52.079Z,100523.00
2022-11-15T19:54:20.821Z,100522.23
2022-11-15T19:56:49.133Z,100520.49
2022-11-15T19:59:17.548Z,100519.29
2022-11-15T20:01:46.951Z,100516.14
2022-11-15T20:04:17.019Z,100526.30
2022-11-15T20:06:46.760Z,100529.74
2022-11-15T20:09:16.891Z,100525.13
2022-11-15T20:11:46.176Z,100516.81
2022-11-15T20:14:16.573Z,100516.16
2022-11-15T20:16:47.906Z,100514.46
2022-11-15T20:19:19.531Z,100508.88
2022-11-15T20:21:48.022Z,100505.78
2022-11-15T20:24:16.796Z,100503.58
2022-11-15T20:26:45.426Z,100502.00
2022-11-15T20:29:14.059Z,100498.31
2022-11-15T20:31:43.248Z,100498.24
2022-11-15T20:34:12.104Z,100497.77
2022-11-15T20:36:40.748Z,100493.30
2022-11-15T20:39:09.431Z,100498.91
2022-11-15T20:41:38.372Z,100502.35
2022-11-15T20:44:11.914Z,100503.60
2022-11-15T20:46:42.794Z,100507.58
2022-11-15T20:49:12.476Z,100503.42
2022-11-15T20:51:43.051Z,100501.25
2022-11-15T20:54:14.586Z,100506.56
2022-11-15T20:56:44.916Z,100513.13
2022-11-15T20:59:13.989Z,100514.11
2022-11-15T21:01:44.606Z,100502.48
2022-11-15T21:04:14.093Z,100495.58
2022-11-15T21:06:47.619Z,100486.37
2022-11-15T21:09:36.345Z,100481.51
2022-11-15T21:12:13.641Z,100471.89
2022-11-15T21:14:44.374Z,100471.84
2022-11-15T21:17:13.090Z,100477.37
2022-11-15T21:19:42.708Z,100479.37
2022-11-15T21:22:14.433Z,100467.38
2022-11-15T21:24:43.588Z,100459.79
2022-11-15T21:27:12.221Z,100451.31
2022-11-15T21:29:40.561Z,100443.91
2022-11-15T21:32:10.423Z,100448.60
2022-11-15T21:34:38.631Z,100453.10
2022-11-15T21:37:07.173Z,100452.05
2022-11-15T21:39:35.364Z,100453.14
2022-11-15T21:42:03.979Z,100453.19
2022-11-15T21:44:32.510Z,100449.30
2022-11-15T21:47:00.738Z,100453.43
2022-11-15T21:49:28.833Z,100450.05
2022-11-15T21:51:56.964Z,100452.48
2022-11-15T21:54:25.068Z,100454.10
2022-11-15T21:56:53.284Z,100456.52
2022-11-15T21:59:21.372Z,100451.23
2022-11-15T22:02:09.024Z,100442.42
2022-11-15T22:07:38.696Z,100440.69
2022-11-15T22:10:10.242Z,100441.59
2022-11-15T22:12:39.293Z,100444.83
2022-11-15T22:15:08.274Z,100445.21
2022-11-15T22:17:55.523Z,100438.71
2022-11-15T22:20:43.526Z,100438.02
2022-11-15T22:23:12.310Z,100439.27
2022-11-15T22:25:40.850Z,100444.71
2022-11-15T22:28:09.526Z,100441.78
2022-11-15T22:30:39.236Z,100437.89
2022-11-15T22:33:07.857Z,100432.70
2022-11-15T22:35:36.742Z,100428.86
2022-11-15T22:38:05.416Z,100429.39
2022-11-15T22:40:34.316Z,100432.64
2022-11-15T22:43:03.507Z,100430.29
2022-11-15T22:45:31.684Z,100434.34
2022-11-15T22:47:59.946Z,100433.65
2022-11-15T22:50:28.547Z,100431.86
2022-11-15T22:52:56.983Z,100430.88
2022-11-15T22:55:25.326Z,100428.20
2022-11-15T22:57:53.786Z,100431.08
2022-11-15T23:00:22.128Z,100426.09
2022-11-15T23:02:54.370Z,100426.41
2022-11-15T23:05:22.826Z,100423.03
2022-11-15T23:07:51.253Z,100421.98
2022-11-15T23:10:38.253Z,100423.74
2022-11-15T23:13:18.663Z,100425.73
2022-11-15T23:16:08.661Z,100424.19
2022-11-15T23:18:39.466Z,100422.27
2022-11-15T23:21:37.020Z,100413.50
2022-11-15T23:24:05.699Z,100411.92
2022-11-15T23:26:33.969Z,100410.13
2022-11-15T23:29:02.248Z,100405.30
2022-11-15T23:31:56.391Z,100400.50
2022-11-15T23:34:31.478Z,100392.13
2022-11-15T23:37:00.090Z,100392.81
2022-11-15T23:39:28.745Z,100393.79
2022-11-15T23:41:57.190Z,100401.70
2022-11-15T23:44:25.736Z,100406.42
2022-11-15T23:46:54.167Z,100404.33
2022-11-15T23:49:22.438Z,100399.77
2022-11-15T23:51:50.422Z,100398.51
2022-11-15T23:54:18.534Z,100393.34
2022-11-15T23:56:46.543Z,100397.80
2022-11-15T23:59:14.902Z,100394.20
